createdAt,value
2019-03-10T00:00:25.252Z,9.20
2019-03-10T00:02:56.167Z,9.20
2019-03-10T00:05:25.480Z,9.20
2019-03-10T00:07:54.892Z,9.20
2019-03-10T00:10:24.153Z,9.30
2019-03-10T00:12:53.571Z,9.30
2019-03-10T00:15:22.858Z,9.30
2019-03-10T00:17:52.125Z,9.20
2019-03-10T00:20:21.444Z,9.30
2019-03-10T00:22:50.714Z,9.30
2019-03-10T00:25:19.997Z,9.20
2019-03-10T00:27:49.299Z,9.20
2019-03-10T00:30:18.829Z,9.30
2019-03-10T00:32:48.092Z,9.30
2019-03-10T00:35:17.360Z,9.30
2019-03-10T00:37:46.622Z,9.30
2019-03-10T00:40:50.761Z,9.30
2019-03-10T00:43:28.545Z,9.30
2019-03-10T00:46:12.417Z,9.20
2019-03-10T00:49:02.796Z,9.30
2019-03-10T00:51:54.797Z,9.20
2019-03-10T00:54:25.034Z,9.20
2019-03-10T00:56:54.373Z,9.20
2019-03-10T00:59:23.636Z,9.20
2019-03-10T01:01:52.921Z,9.20
2019-03-10T01:04:22.352Z,9.20
2019-03-10T01:06:52.312Z,9.20
2019-03-10T01:09:21.575Z,9.20
2019-03-10T01:11:50.852Z,9.20
2019-03-10T01:14:20.122Z,9.20
2019-03-10T01:16:49.741Z,9.20
2019-03-10T01:19:19.944Z,9.20
2019-03-10T01:21:49.385Z,9.20
2019-03-10T01:24:20.181Z,9.20
2019-03-10T01:26:49.452Z,9.20
2019-03-10T01:29:18.712Z,9.20
2019-03-10T01:32:13.534Z,9.20
2019-03-10T01:34:51.645Z,9.10
2019-03-10T01:37:20.930Z,9.10
2019-03-10T01:39:50.203Z,9.10
2019-03-10T01:42:19.474Z,9.10
2019-03-10T01:44:48.737Z,9.10
2019-03-10T01:47:18.005Z,9.10
2019-03-10T01:49:47.324Z,9.10
2019-03-10T01:52:16.634Z,9.00
2019-03-10T01:54:45.945Z,9.00
2019-03-10T01:57:15.252Z,9.00
2019-03-10T01:59:44.523Z,9.00
2019-03-10T02:02:13.825Z,9.00
2019-03-10T02:04:43.056Z,9.00
2019-03-10T02:07:13.304Z,9.00
2019-03-10T02:09:43.945Z,9.00
2019-03-10T02:12:13.212Z,9.00
2019-03-10T02:14:42.471Z,9.00
2019-03-10T02:17:11.748Z,9.00
2019-03-10T02:19:41.008Z,9.00
2019-03-10T02:22:10.362Z,9.00
2019-03-10T02:24:39.629Z,9.00
2019-03-10T02:27:08.904Z,9.00
2019-03-10T02:29:38.240Z,9.00
2019-03-10T02:32:07.584Z,9.00
2019-03-10T02:34:36.848Z,9.00
2019-03-10T02:37:06.122Z,9.00
2019-03-10T02:39:35.420Z,9.00
2019-03-10T02:42:04.685Z,9.00
2019-03-10T02:44:35.033Z,8.90
2019-03-10T02:47:04.311Z,9.00
2019-03-10T02:49:34.634Z,8.90
2019-03-10T02:52:03.916Z,8.90
2019-03-10T02:54:33.174Z,8.90
2019-03-10T02:57:02.441Z,8.90
2019-03-10T02:59:31.781Z,8.90
2019-03-10T03:02:01.091Z,8.90
2019-03-10T03:04:30.474Z,8.90
2019-03-10T03:06:59.784Z,8.90
2019-03-10T03:09:29.187Z,8.90
2019-03-10T03:11:58.513Z,8.90
2019-03-10T03:14:27.864Z,8.90
2019-03-10T03:16:57.177Z,8.90
2019-03-10T03:19:26.494Z,8.90
2019-03-10T03:21:57.481Z,8.90
2019-03-10T03:24:26.810Z,8.80
2019-03-10T03:26:56.119Z,8.80
2019-03-10T03:29:25.482Z,8.80
2019-03-10T03:31:54.743Z,8.80
2019-03-10T03:34:26.703Z,8.80
2019-03-10T03:36:56.109Z,8.80
2019-03-10T03:39:31.175Z,8.70
2019-03-10T03:42:00.500Z,8.60
2019-03-10T03:44:29.799Z,8.50
2019-03-10T03:46:59.207Z,8.50
2019-03-10T03:49:28.570Z,8.40
2019-03-10T03:51:58.926Z,8.30
2019-03-10T03:54:28.184Z,8.30
2019-03-10T03:56:57.545Z,8.20
2019-03-10T03:59:26.858Z,8.10
2019-03-10T04:01:57.861Z,8.10
2019-03-10T04:04:27.183Z,8.00
2019-03-10T04:06:56.539Z,7.90
2019-03-10T04:09:25.883Z,7.90
2019-03-10T04:11:55.159Z,7.80
2019-03-10T04:14:24.417Z,7.70
2019-03-10T04:16:56.229Z,7.70
2019-03-10T04:19:25.486Z,7.60
2019-03-10T04:21:54.741Z,7.50
2019-03-10T04:24:24.017Z,7.50
2019-03-10T04:26:53.289Z,7.50
2019-03-10T04:29:23.533Z,7.50
2019-03-10T04:31:52.797Z,7.40
2019-03-10T04:34:22.061Z,7.40
2019-03-10T04:36:51.331Z,7.40
2019-03-10T04:39:20.600Z,7.40
2019-03-10T04:41:49.885Z,7.40
2019-03-10T04:44:19.141Z,7.40
2019-03-10T04:46:48.555Z,7.40
2019-03-10T04:49:17.913Z,7.40
2019-03-10T04:51:48.144Z,7.30
2019-03-10T04:54:19.050Z,7.30
2019-03-10T04:56:49.960Z,7.30
2019-03-10T04:59:19.224Z,7.30
2019-03-10T05:01:48.533Z,7.30
2019-03-10T05:04:17.783Z,7.30
2019-03-10T05:06:47.053Z,7.30
2019-03-10T05:09:16.315Z,7.30
2019-03-10T05:11:45.599Z,7.30
2019-03-10T05:14:14.861Z,7.30
2019-03-10T05:16:44.132Z,7.20
2019-03-10T05:19:13.405Z,7.20
2019-03-10T05:21:42.677Z,7.20
2019-03-10T05:24:11.935Z,7.20
2019-03-10T05:26:41.215Z,7.20
2019-03-10T05:29:10.481Z,7.20
2019-03-10T05:31:39.818Z,7.20
2019-03-10T05:34:09.141Z,7.20
2019-03-10T05:36:38.471Z,7.10
2019-03-10T05:39:07.787Z,7.10
2019-03-10T05:41:37.076Z,7.10
2019-03-10T05:44:06.321Z,7.10
2019-03-10T05:46:35.598Z,7.10
2019-03-10T05:49:04.861Z,7.10
2019-03-10T05:51:34.132Z,7.00
2019-03-10T05:54:03.411Z,7.00
2019-03-10T05:56:32.675Z,7.00
2019-03-10T05:59:01.937Z,7.00
2019-03-10T06:01:32.253Z,6.90
2019-03-10T06:04:04.029Z,6.90
2019-03-10T06:06:33.358Z,6.90
2019-03-10T06:09:05.472Z,6.90
2019-03-10T06:11:35.058Z,6.90
2019-03-10T06:14:04.388Z,6.90
2019-03-10T06:16:33.752Z,6.90
2019-03-10T06:19:03.008Z,6.90
2019-03-10T06:21:32.294Z,6.90
2019-03-10T06:24:01.565Z,6.90
2019-03-10T06:26:30.830Z,6.80
2019-03-10T06:29:00.096Z,6.80
2019-03-10T06:31:29.368Z,6.80
2019-03-10T06:33:58.640Z,6.80
2019-03-10T06:36:27.913Z,6.80
2019-03-10T06:38:57.173Z,6.90
2019-03-10T06:41:26.435Z,6.90
2019-03-10T06:43:55.709Z,6.90
2019-03-10T06:46:24.975Z,6.90
2019-03-10T06:48:54.327Z,6.90
2019-03-10T06:51:23.588Z,6.90
2019-03-10T06:53:53.001Z,6.90
2019-03-10T06:56:22.311Z,7.00
2019-03-10T06:58:51.576Z,6.90
2019-03-10T07:01:20.837Z,6.90
2019-03-10T07:03:50.110Z,6.90
2019-03-10T07:06:19.369Z,6.90
2019-03-10T07:08:48.641Z,6.90
2019-03-10T07:11:17.914Z,6.90
2019-03-10T07:13:47.185Z,6.90
2019-03-10T07:16:16.448Z,6.90
2019-03-10T07:18:45.730Z,6.90
2019-03-10T07:21:15.004Z,6.90
2019-03-10T07:23:44.378Z,6.90
2019-03-10T07:26:13.632Z,6.90
2019-03-10T07:28:47.508Z,6.90
2019-03-10T07:31:20.827Z,6.90
2019-03-10T07:33:54.407Z,6.90
2019-03-10T07:36:28.002Z,6.90
2019-03-10T07:39:15.184Z,7.00
2019-03-10T07:41:49.010Z,7.00
2019-03-10T07:44:26.197Z,7.10
2019-03-10T07:47:13.500Z,7.10
2019-03-10T07:49:50.105Z,7.10
2019-03-10T07:52:21.007Z,7.20
2019-03-10T07:57:44.820Z,7.20
2019-03-10T08:00:15.735Z,7.30
2019-03-10T08:03:04.673Z,7.30
2019-03-10T08:05:35.581Z,7.40
2019-03-10T08:08:06.499Z,7.40
2019-03-10T08:10:52.683Z,7.40
2019-03-10T08:13:23.592Z,7.50
2019-03-10T08:15:54.554Z,7.50
2019-03-10T08:18:28.436Z,7.60
2019-03-10T08:21:14.620Z,7.60
2019-03-10T08:24:02.041Z,7.70
2019-03-10T08:26:49.369Z,7.80
2019-03-10T08:29:39.253Z,7.90
2019-03-10T08:32:16.147Z,8.00
2019-03-10T08:34:59.340Z,8.10
2019-03-10T08:37:30.247Z,8.30
2019-03-10T08:40:04.131Z,8.40
2019-03-10T08:42:43.835Z,8.60
2019-03-10T08:45:20.324Z,8.70
2019-03-10T08:47:54.181Z,8.80
2019-03-10T08:50:28.014Z,9.00
2019-03-10T08:52:58.916Z,9.10
2019-03-10T08:55:29.839Z,9.20
2019-03-10T08:58:06.878Z,9.40
2019-03-10T09:00:37.790Z,9.50
2019-03-10T09:03:14.450Z,9.60
2019-03-10T09:05:48.240Z,9.80
2019-03-10T09:08:22.884Z,9.90
2019-03-10T09:10:53.802Z,10.00
2019-03-10T09:13:24.712Z,10.10
2019-03-10T09:16:01.368Z,10.20
2019-03-10T09:18:42.625Z,10.30
2019-03-10T09:21:16.367Z,10.40
2019-03-10T09:24:06.220Z,10.40
2019-03-10T09:26:42.729Z,10.50
2019-03-10T09:29:13.645Z,10.60
2019-03-10T09:31:51.506Z,10.60
2019-03-10T09:34:22.418Z,10.80
2019-03-10T09:37:02.517Z,11.00
2019-03-10T09:39:33.451Z,11.20
2019-03-10T09:42:19.625Z,11.40
2019-03-10T09:45:05.526Z,11.50
2019-03-10T09:47:36.451Z,11.40
2019-03-10T09:50:19.092Z,11.40
2019-03-10T09:52:56.048Z,11.30
2019-03-10T09:55:35.951Z,11.20
2019-03-10T09:58:15.996Z,11.20
2019-03-10T10:00:49.592Z,11.10
2019-03-10T10:03:29.832Z,11.10
2019-03-10T10:06:00.748Z,11.10
2019-03-10T10:08:35.369Z,11.10
2019-03-10T10:11:09.078Z,11.10
2019-03-10T10:13:42.677Z,11.30
2019-03-10T10:16:30.149Z,11.30
2019-03-10T10:19:17.331Z,11.50
2019-03-10T10:21:48.283Z,11.60
2019-03-10T10:24:24.926Z,11.80
2019-03-10T10:27:01.821Z,11.90
2019-03-10T10:29:41.756Z,12.00
2019-03-10T10:32:21.803Z,12.10
2019-03-10T10:34:55.390Z,12.20
2019-03-10T10:37:28.757Z,12.30
2019-03-10T10:40:02.410Z,12.30
2019-03-10T10:42:33.333Z,12.40
2019-03-10T10:45:20.915Z,12.40
2019-03-10T10:48:08.374Z,12.40
2019-03-10T10:50:50.989Z,12.40
2019-03-10T10:53:24.384Z,12.40
2019-03-10T10:55:57.989Z,12.40
2019-03-10T10:58:28.889Z,12.20
2019-03-10T11:01:02.912Z,12.20
2019-03-10T11:03:36.632Z,12.10
2019-03-10T11:06:20.013Z,12.10
2019-03-10T11:09:07.330Z,12.10
2019-03-10T11:11:41.752Z,12.10
2019-03-10T11:14:11.897Z,12.20
2019-03-10T11:16:45.685Z,12.30
2019-03-10T11:19:19.657Z,12.50
2019-03-10T11:21:56.707Z,12.60
2019-03-10T11:24:44.721Z,12.70
2019-03-10T11:27:22.020Z,12.90
2019-03-10T11:30:11.267Z,12.90
2019-03-10T11:32:48.392Z,13.00
2019-03-10T11:35:25.521Z,12.80
2019-03-10T11:37:56.425Z,12.70
2019-03-10T11:40:30.309Z,12.50
2019-03-10T11:43:09.969Z,12.30
2019-03-10T11:45:40.907Z,12.00
2019-03-10T11:48:11.822Z,11.40
2019-03-10T11:50:45.581Z,10.90
2019-03-10T11:53:28.519Z,10.50
2019-03-10T11:56:04.901Z,10.20
2019-03-10T11:58:51.997Z,10.10
2019-03-10T12:01:29.125Z,10.10
2019-03-10T12:04:15.195Z,10.10
2019-03-10T12:06:57.995Z,10.30
2019-03-10T12:09:28.344Z,10.30
2019-03-10T12:11:57.689Z,10.30
2019-03-10T12:14:26.975Z,10.30
2019-03-10T12:16:56.249Z,10.20
2019-03-10T12:19:25.572Z,10.20
2019-03-10T12:21:55.961Z,10.20
2019-03-10T12:24:25.571Z,10.20
2019-03-10T12:26:54.846Z,10.20
2019-03-10T12:29:24.122Z,10.20
2019-03-10T12:31:53.391Z,10.20
2019-03-10T12:34:22.673Z,10.30
2019-03-10T12:36:51.940Z,10.30
2019-03-10T12:39:21.229Z,10.40
2019-03-10T12:41:58.496Z,10.40
2019-03-10T12:44:21.468Z,10.50
2019-03-10T12:46:50.741Z,10.50
2019-03-10T12:49:20.021Z,10.60
2019-03-10T12:51:49.300Z,10.70
2019-03-10T12:54:18.569Z,10.80
2019-03-10T12:56:47.850Z,10.80
2019-03-10T12:59:17.117Z,10.80
2019-03-10T13:01:46.404Z,10.80
2019-03-10T13:04:15.660Z,10.80
2019-03-10T13:06:44.939Z,10.90
2019-03-10T13:09:14.236Z,10.90
2019-03-10T13:11:43.509Z,11.00
2019-03-10T13:14:12.785Z,11.10
2019-03-10T13:16:42.074Z,11.50
2019-03-10T13:19:11.350Z,12.10
2019-03-10T13:21:40.653Z,12.50
2019-03-10T13:24:10.017Z,12.60
2019-03-10T13:26:41.518Z,12.90
2019-03-10T13:29:10.262Z,13.10
2019-03-10T13:31:39.550Z,13.00
2019-03-10T13:34:08.820Z,12.80
2019-03-10T13:36:38.134Z,12.60
2019-03-10T13:39:07.405Z,12.40
2019-03-10T13:41:38.301Z,12.20
2019-03-10T13:44:07.564Z,12.00
2019-03-10T13:46:36.847Z,11.80
2019-03-10T13:49:07.734Z,11.40
2019-03-10T13:51:37.012Z,11.20
2019-03-10T13:54:06.279Z,11.00
2019-03-10T13:56:35.560Z,10.90
2019-03-10T13:59:04.892Z,10.90
2019-03-10T14:01:34.193Z,10.90
2019-03-10T14:04:03.517Z,11.00
2019-03-10T14:06:40.041Z,11.10
2019-03-10T14:09:10.251Z,11.20
2019-03-10T14:11:39.611Z,11.30
2019-03-10T14:14:08.892Z,11.30
2019-03-10T14:16:38.171Z,11.30
2019-03-10T14:19:07.432Z,11.60
2019-03-10T14:21:36.711Z,11.90
2019-03-10T14:24:06.044Z,11.90
2019-03-10T14:26:35.400Z,11.90
2019-03-10T14:29:04.734Z,11.70
2019-03-10T14:31:34.012Z,11.90
2019-03-10T14:34:03.277Z,12.20
2019-03-10T14:36:32.588Z,12.50
2019-03-10T14:39:04.447Z,12.60
2019-03-10T14:41:34.367Z,12.80
2019-03-10T14:44:03.631Z,12.80
2019-03-10T14:46:32.904Z,12.90
2019-03-10T14:49:02.181Z,12.70
2019-03-10T14:51:31.462Z,12.40
2019-03-10T14:54:02.020Z,12.30
2019-03-10T14:56:31.341Z,12.50
2019-03-10T14:59:00.600Z,12.90
2019-03-10T15:01:29.894Z,13.10
2019-03-10T15:03:59.165Z,12.70
2019-03-10T15:06:28.454Z,12.40
2019-03-10T15:08:57.727Z,12.10
2019-03-10T15:11:27.089Z,11.70
2019-03-10T15:13:56.362Z,11.30
2019-03-10T15:16:25.641Z,11.10
2019-03-10T15:18:54.920Z,11.20
2019-03-10T15:21:24.205Z,11.30
2019-03-10T15:23:53.480Z,11.60
2019-03-10T15:26:22.759Z,11.90
2019-03-10T15:28:52.037Z,12.00
2019-03-10T15:31:21.300Z,12.00
2019-03-10T15:33:50.577Z,12.10
2019-03-10T15:36:20.916Z,12.10
2019-03-10T15:38:50.298Z,12.00
2019-03-10T15:41:20.546Z,11.70
2019-03-10T15:43:51.093Z,11.40
2019-03-10T15:46:20.359Z,11.20
2019-03-10T15:48:49.628Z,10.90
2019-03-10T15:51:18.889Z,10.70
2019-03-10T15:53:48.162Z,10.40
2019-03-10T15:56:17.428Z,10.20
2019-03-10T15:58:46.714Z,9.90
2019-03-10T16:01:15.977Z,9.80
2019-03-10T16:03:45.256Z,9.60
2019-03-10T16:06:14.522Z,9.50
2019-03-10T16:08:45.335Z,9.40
2019-03-10T16:15:26.189Z,9.20
2019-03-10T16:17:55.468Z,9.00
2019-03-10T16:20:24.749Z,8.90
2019-03-10T16:22:55.362Z,8.90
2019-03-10T16:25:24.869Z,8.80
2019-03-10T16:27:54.147Z,8.80
2019-03-10T16:30:24.762Z,8.70
2019-03-10T16:32:54.110Z,8.60
2019-03-10T16:35:23.377Z,8.50
2019-03-10T16:37:52.717Z,8.40
2019-03-10T16:40:22.366Z,8.40
2019-03-10T16:42:52.710Z,8.30
2019-03-10T16:45:26.537Z,8.30
2019-03-10T16:47:57.657Z,8.20
2019-03-10T16:50:30.255Z,8.10
2019-03-10T16:52:59.524Z,8.10
2019-03-10T16:55:28.808Z,8.00
2019-03-10T16:57:58.088Z,8.00
2019-03-10T17:00:27.428Z,7.90
2019-03-10T17:02:56.703Z,7.80
2019-03-10T17:05:25.977Z,7.70
2019-03-10T17:07:55.258Z,7.70
2019-03-10T17:10:26.528Z,7.60
2019-03-10T17:12:55.956Z,7.60
2019-03-10T17:15:25.880Z,7.50
2019-03-10T17:17:55.232Z,7.50
2019-03-10T17:20:25.599Z,7.40
2019-03-10T17:22:54.883Z,7.20
2019-03-10T17:25:24.201Z,7.20
2019-03-10T17:27:53.524Z,7.20
2019-03-10T17:30:26.527Z,7.20
2019-03-10T17:32:55.898Z,7.20
2019-03-10T17:35:25.169Z,7.20
2019-03-10T17:37:54.442Z,7.20
2019-03-10T17:40:26.555Z,7.20
2019-03-10T17:42:55.829Z,7.20
2019-03-10T17:45:26.050Z,7.20
2019-03-10T17:47:55.304Z,7.20
2019-03-10T17:50:24.580Z,7.20
2019-03-10T17:52:53.857Z,7.20
2019-03-10T17:55:24.268Z,7.20
2019-03-10T17:57:53.588Z,7.20
2019-03-10T18:00:25.715Z,7.20
2019-03-10T18:02:54.995Z,7.20
2019-03-10T18:05:24.270Z,7.30
2019-03-10T18:07:53.589Z,7.30
2019-03-10T18:10:22.918Z,7.30
2019-03-10T18:12:52.180Z,7.20
2019-03-10T18:15:21.536Z,7.20
2019-03-10T18:17:50.824Z,7.20
2019-03-10T18:20:21.170Z,7.20
2019-03-10T18:22:50.475Z,7.20
2019-03-10T18:25:19.809Z,7.20
2019-03-10T18:27:49.144Z,7.20
2019-03-10T18:30:22.351Z,7.20
2019-03-10T18:32:51.614Z,7.20
2019-03-10T18:35:20.888Z,7.20
2019-03-10T18:37:50.163Z,7.20
2019-03-10T18:40:20.675Z,7.20
2019-03-10T18:42:49.949Z,7.20
2019-03-10T18:45:20.289Z,7.20
2019-03-10T18:47:49.571Z,7.20
2019-03-10T18:50:20.973Z,7.20
2019-03-10T18:52:50.227Z,7.10
2019-03-10T18:55:19.722Z,7.10
2019-03-10T18:57:49.071Z,7.10
2019-03-10T19:00:27.913Z,7.10
2019-03-10T19:02:57.324Z,7.00
2019-03-10T19:05:26.619Z,7.00
2019-03-10T19:07:56.046Z,7.00
2019-03-10T19:10:25.304Z,7.00
2019-03-10T19:12:54.584Z,7.00
2019-03-10T19:15:26.297Z,7.00
2019-03-10T19:17:55.613Z,6.90
2019-03-10T19:20:24.991Z,6.90
2019-03-10T19:22:54.283Z,6.90
2019-03-10T19:25:23.573Z,6.90
2019-03-10T19:27:53.393Z,6.90
2019-03-10T19:30:23.313Z,6.90
2019-03-10T19:32:52.574Z,6.80
2019-03-10T19:35:21.860Z,6.80
2019-03-10T19:37:51.149Z,6.80
2019-03-10T19:40:21.545Z,6.80
2019-03-10T19:42:50.909Z,6.80
2019-03-10T19:45:21.213Z,6.70
2019-03-10T19:47:50.488Z,6.70
2019-03-10T19:50:28.093Z,6.50
2019-03-10T19:52:57.647Z,6.30
2019-03-10T19:55:26.970Z,6.20
2019-03-10T19:57:56.238Z,6.00
2019-03-10T20:00:25.509Z,5.90
2019-03-10T20:02:54.855Z,5.90
2019-03-10T20:05:24.120Z,5.80
2019-03-10T20:07:53.454Z,5.80
2019-03-10T20:10:24.366Z,5.80
2019-03-10T20:12:53.642Z,5.80
2019-03-10T20:15:24.057Z,5.80
2019-03-10T20:17:53.356Z,5.80
2019-03-10T20:20:30.418Z,5.80
2019-03-10T20:23:01.216Z,5.80
2019-03-10T20:25:30.750Z,5.60
2019-03-10T20:28:00.028Z,5.30
2019-03-10T20:30:29.290Z,4.80
2019-03-10T20:32:58.562Z,4.40
2019-03-10T20:35:27.842Z,3.90
2019-03-10T20:37:57.118Z,3.60
2019-03-10T20:40:27.407Z,3.40
2019-03-10T20:42:56.681Z,3.10
2019-03-10T20:45:25.965Z,3.00
2019-03-10T20:47:56.604Z,2.90
2019-03-10T20:50:26.300Z,2.80
2019-03-10T20:52:55.568Z,2.80
2019-03-10T20:55:24.861Z,2.70
2019-03-10T20:57:54.192Z,2.80
2019-03-10T21:00:28.311Z,2.80
2019-03-10T21:02:57.716Z,2.80
2019-03-10T21:05:27.008Z,2.80
2019-03-10T21:07:56.306Z,2.80
2019-03-10T21:10:26.820Z,2.90
2019-03-10T21:12:56.095Z,2.90
2019-03-10T21:15:26.525Z,2.90
2019-03-10T21:17:56.092Z,2.80
2019-03-10T21:20:26.187Z,2.80
2019-03-10T21:22:55.424Z,2.80
2019-03-10T21:25:29.190Z,2.80
2019-03-10T21:27:58.522Z,2.80
2019-03-10T21:30:32.962Z,2.80
2019-03-10T21:33:02.296Z,2.80
2019-03-10T21:35:33.334Z,2.80
2019-03-10T21:38:02.536Z,2.80
2019-03-10T21:40:33.033Z,2.80
2019-03-10T21:43:02.303Z,2.80
2019-03-10T21:45:31.581Z,2.80
2019-03-10T21:48:00.847Z,2.80
2019-03-10T21:50:30.114Z,2.80
2019-03-10T21:52:59.385Z,2.80
2019-03-10T21:55:28.654Z,2.80
2019-03-10T21:57:57.987Z,2.80
2019-03-10T22:00:27.266Z,2.80
2019-03-10T22:02:56.533Z,2.80
2019-03-10T22:05:25.832Z,2.80
2019-03-10T22:07:55.091Z,2.80
2019-03-10T22:10:27.522Z,2.70
2019-03-10T22:12:55.328Z,2.70
2019-03-10T22:15:24.592Z,2.70
2019-03-10T22:17:53.847Z,2.70
2019-03-10T22:20:23.126Z,2.70
2019-03-10T22:22:52.388Z,2.70
2019-03-10T22:25:21.666Z,2.70
2019-03-10T22:27:50.924Z,2.70
2019-03-10T22:30:22.499Z,2.70
2019-03-10T22:32:51.839Z,2.70
2019-03-10T22:35:21.175Z,2.70
2019-03-10T22:37:50.548Z,2.70
2019-03-10T22:40:19.838Z,2.80
2019-03-10T22:42:49.103Z,2.80
2019-03-10T22:45:19.014Z,2.80
2019-03-10T22:47:48.273Z,2.80
2019-03-10T22:50:17.745Z,2.80
2019-03-10T22:52:47.011Z,2.80
2019-03-10T22:55:16.358Z,2.80
2019-03-10T22:57:45.666Z,2.90
2019-03-10T23:00:24.962Z,2.80
2019-03-10T23:02:55.872Z,2.90
2019-03-10T23:05:25.128Z,2.90
2019-03-10T23:07:54.405Z,2.90
2019-03-10T23:10:23.673Z,3.00
2019-03-10T23:12:52.951Z,3.00
2019-03-10T23:15:22.217Z,3.00
2019-03-10T23:17:51.487Z,3.10
2019-03-10T23:20:20.757Z,3.20
2019-03-10T23:22:50.025Z,3.20
2019-03-10T23:25:19.306Z,3.40
2019-03-10T23:27:48.576Z,3.40
2019-03-10T23:30:18.690Z,3.50
2019-03-10T23:32:48.003Z,3.60
2019-03-10T23:35:17.285Z,3.60
2019-03-10T23:37:46.549Z,3.70
2019-03-10T23:40:20.191Z,3.90
2019-03-10T23:42:49.477Z,3.90
2019-03-10T23:45:19.211Z,4.00
2019-03-10T23:47:48.483Z,4.10
2019-03-10T23:50:18.696Z,4.10
2019-03-10T23:52:47.965Z,4.20
2019-03-10T23:55:17.236Z,4.30
2019-03-10T23:57:46.973Z,4.40
